sensor_id;sensor_type;location;lat;lon;timestamp;P1;durP1;ratioP1;P2;durP2;ratioP2
49678;SDS011;35570;48.218;16.326;2023-12-04T00:04:20;13.90;;;9.95;;
49678;SDS011;35570;48.218;16.326;2023-12-04T00:06:46;14.73;;;9.55;;
49678;SDS011;35570;48.218;16.326;2023-12-04T00:09:12;15.32;;;10.00;;
49678;SDS011;35570;48.218;16.326;2023-12-04T00:11:37;13.50;;;10.13;;
49678;SDS011;35570;48.218;16.326;2023-12-04T00:16:39;15.75;;;10.80;;
49678;SDS011;35570;48.218;16.326;2023-12-04T00:19:04;15.07;;;10.38;;
49678;SDS011;35570;48.218;16.326;2023-12-04T00:21:30;14.63;;;10.68;;
49678;SDS011;35570;48.218;16.326;2023-12-04T00:31:52;16.08;;;10.60;;
49678;SDS011;35570;48.218;16.326;2023-12-04T00:34:55;12.23;;;9.50;;
49678;SDS011;35570;48.218;16.326;2023-12-04T00:42:32;14.50;;;10.13;;
49678;SDS011;35570;48.218;16.326;2023-12-04T00:44:59;15.55;;;10.98;;
49678;SDS011;35570;48.218;16.326;2023-12-04T00:47:25;17.75;;;12.23;;
49678;SDS011;35570;48.218;16.326;2023-12-04T00:49:50;16.63;;;11.57;;
49678;SDS011;35570;48.218;16.326;2023-12-04T00:52:16;15.73;;;11.25;;
49678;SDS011;35570;48.218;16.326;2023-12-04T00:54:42;15.73;;;11.43;;
49678;SDS011;35570;48.218;16.326;2023-12-04T00:57:08;16.40;;;11.15;;
49678;SDS011;35570;48.218;16.326;2023-12-04T00:59:34;16.48;;;11.20;;
49678;SDS011;35570;48.218;16.326;2023-12-04T01:02:00;16.45;;;11.80;;
49678;SDS011;35570;48.218;16.326;2023-12-04T01:04:26;16.17;;;11.25;;
49678;SDS011;35570;48.218;16.326;2023-12-04T01:06:52;15.65;;;11.10;;
49678;SDS011;35570;48.218;16.326;2023-12-04T01:09:17;17.33;;;11.70;;
49678;SDS011;35570;48.218;16.326;2023-12-04T01:11:43;16.50;;;11.15;;
49678;SDS011;35570;48.218;16.326;2023-12-04T01:14:09;14.77;;;10.15;;
49678;SDS011;35570;48.218;16.326;2023-12-04T01:16:34;14.85;;;9.45;;
49678;SDS011;35570;48.218;16.326;2023-12-04T01:19:00;13.60;;;10.00;;
49678;SDS011;35570;48.218;16.326;2023-12-04T01:21:25;13.55;;;10.07;;
49678;SDS011;35570;48.218;16.326;2023-12-04T01:23:51;14.40;;;9.95;;
49678;SDS011;35570;48.218;16.326;2023-12-04T01:26:17;14.70;;;9.90;;
49678;SDS011;35570;48.218;16.326;2023-12-04T01:28:42;13.43;;;9.27;;
49678;SDS011;35570;48.218;16.326;2023-12-04T01:31:08;14.07;;;9.38;;
49678;SDS011;35570;48.218;16.326;2023-12-04T01:33:34;11.65;;;8.07;;
49678;SDS011;35570;48.218;16.326;2023-12-04T01:35:59;11.60;;;7.97;;
49678;SDS011;35570;48.218;16.326;2023-12-04T01:38:26;10.85;;;7.80;;
49678;SDS011;35570;48.218;16.326;2023-12-04T01:40:52;11.35;;;8.35;;
49678;SDS011;35570;48.218;16.326;2023-12-04T01:43:17;11.48;;;8.45;;
49678;SDS011;35570;48.218;16.326;2023-12-04T01:45:43;14.25;;;9.43;;
49678;SDS011;35570;48.218;16.326;2023-12-04T01:48:09;13.43;;;8.88;;
49678;SDS011;35570;48.218;16.326;2023-12-04T01:50:38;13.48;;;9.25;;
49678;SDS011;35570;48.218;16.326;2023-12-04T01:53:04;11.98;;;8.43;;
49678;SDS011;35570;48.218;16.326;2023-12-04T01:55:30;12.20;;;8.32;;
49678;SDS011;35570;48.218;16.326;2023-12-04T01:57:59;9.98;;;7.65;;
49678;SDS011;35570;48.218;16.326;2023-12-04T02:00:27;11.05;;;7.70;;
49678;SDS011;35570;48.218;16.326;2023-12-04T02:02:54;9.73;;;7.18;;
49678;SDS011;35570;48.218;16.326;2023-12-04T02:05:20;10.23;;;7.28;;
49678;SDS011;35570;48.218;16.326;2023-12-04T02:07:47;11.13;;;7.03;;
49678;SDS011;35570;48.218;16.326;2023-12-04T02:10:13;10.82;;;6.55;;
49678;SDS011;35570;48.218;16.326;2023-12-04T02:12:39;10.70;;;7.20;;
49678;SDS011;35570;48.218;16.326;2023-12-04T02:15:05;9.13;;;7.22;;
49678;SDS011;35570;48.218;16.326;2023-12-04T02:17:31;10.25;;;7.32;;
49678;SDS011;35570;48.218;16.326;2023-12-04T02:19:58;11.05;;;8.25;;
49678;SDS011;35570;48.218;16.326;2023-12-04T02:22:24;10.52;;;7.22;;
49678;SDS011;35570;48.218;16.326;2023-12-04T02:24:50;9.70;;;6.70;;
49678;SDS011;35570;48.218;16.326;2023-12-04T02:27:17;9.13;;;7.05;;
49678;SDS011;35570;48.218;16.326;2023-12-04T02:29:48;10.60;;;7.15;;
49678;SDS011;35570;48.218;16.326;2023-12-04T02:32:23;11.38;;;7.78;;
49678;SDS011;35570;48.218;16.326;2023-12-04T02:34:49;11.68;;;7.40;;
49678;SDS011;35570;48.218;16.326;2023-12-04T02:37:17;10.40;;;7.07;;
49678;SDS011;35570;48.218;16.326;2023-12-04T02:39:44;9.32;;;6.75;;
49678;SDS011;35570;48.218;16.326;2023-12-04T02:42:09;9.45;;;6.68;;
49678;SDS011;35570;48.218;16.326;2023-12-04T02:44:38;9.90;;;7.25;;
49678;SDS011;35570;48.218;16.326;2023-12-04T02:47:04;8.88;;;6.57;;
49678;SDS011;35570;48.218;16.326;2023-12-04T02:49:30;12.55;;;8.57;;
49678;SDS011;35570;48.218;16.326;2023-12-04T02:51:55;10.45;;;7.47;;
49678;SDS011;35570;48.218;16.326;2023-12-04T02:54:22;11.00;;;7.85;;
49678;SDS011;35570;48.218;16.326;2023-12-04T02:56:48;12.10;;;7.57;;
49678;SDS011;35570;48.218;16.326;2023-12-04T02:59:14;10.32;;;7.78;;
49678;SDS011;35570;48.218;16.326;2023-12-04T03:01:40;12.23;;;8.40;;
49678;SDS011;35570;48.218;16.326;2023-12-04T03:04:05;10.35;;;7.25;;
49678;SDS011;35570;48.218;16.326;2023-12-04T03:06:31;11.50;;;7.88;;
49678;SDS011;35570;48.218;16.326;2023-12-04T03:08:57;10.50;;;7.35;;
49678;SDS011;35570;48.218;16.326;2023-12-04T03:11:24;11.40;;;8.40;;
49678;SDS011;35570;48.218;16.326;2023-12-04T03:13:49;11.25;;;8.20;;
49678;SDS011;35570;48.218;16.326;2023-12-04T03:16:15;11.75;;;8.27;;
49678;SDS011;35570;48.218;16.326;2023-12-04T03:18:42;10.50;;;8.05;;
49678;SDS011;35570;48.218;16.326;2023-12-04T03:21:08;12.30;;;8.85;;
49678;SDS011;35570;48.218;16.326;2023-12-04T03:23:33;14.55;;;9.38;;
49678;SDS011;35570;48.218;16.326;2023-12-04T03:25:59;13.15;;;9.38;;
49678;SDS011;35570;48.218;16.326;2023-12-04T03:28:24;12.07;;;8.40;;
49678;SDS011;35570;48.218;16.326;2023-12-04T03:30:50;12.68;;;9.32;;
49678;SDS011;35570;48.218;16.326;2023-12-04T03:33:15;11.73;;;8.57;;
49678;SDS011;35570;48.218;16.326;2023-12-04T03:35:41;11.40;;;7.90;;
49678;SDS011;35570;48.218;16.326;2023-12-04T03:38:07;11.30;;;8.10;;
49678;SDS011;35570;48.218;16.326;2023-12-04T03:40:32;10.65;;;7.97;;
49678;SDS011;35570;48.218;16.326;2023-12-04T03:42:58;11.75;;;8.95;;
49678;SDS011;35570;48.218;16.326;2023-12-04T03:45:24;12.38;;;8.43;;
49678;SDS011;35570;48.218;16.326;2023-12-04T03:47:49;12.32;;;8.30;;
49678;SDS011;35570;48.218;16.326;2023-12-04T03:50:15;12.38;;;8.38;;
49678;SDS011;35570;48.218;16.326;2023-12-04T03:52:41;11.65;;;8.15;;
49678;SDS011;35570;48.218;16.326;2023-12-04T03:55:07;11.77;;;8.00;;
49678;SDS011;35570;48.218;16.326;2023-12-04T03:57:33;10.82;;;7.90;;
49678;SDS011;35570;48.218;16.326;2023-12-04T03:59:59;12.43;;;7.72;;
49678;SDS011;35570;48.218;16.326;2023-12-04T04:02:25;10.27;;;7.40;;
49678;SDS011;35570;48.218;16.326;2023-12-04T04:04:50;10.43;;;7.32;;
49678;SDS011;35570;48.218;16.326;2023-12-04T04:07:16;11.73;;;7.32;;
49678;SDS011;35570;48.218;16.326;2023-12-04T04:09:45;11.32;;;7.47;;
49678;SDS011;35570;48.218;16.326;2023-12-04T04:12:10;12.60;;;8.75;;
49678;SDS011;35570;48.218;16.326;2023-12-04T04:14:36;11.60;;;8.63;;
49678;SDS011;35570;48.218;16.326;2023-12-04T04:17:02;13.77;;;9.70;;
49678;SDS011;35570;48.218;16.326;2023-12-04T04:19:28;16.02;;;10.35;;
49678;SDS011;35570;48.218;16.326;2023-12-04T04:21:54;15.65;;;10.50;;
49678;SDS011;35570;48.218;16.326;2023-12-04T04:24:20;17.90;;;12.50;;
49678;SDS011;35570;48.218;16.326;2023-12-04T04:26:45;18.67;;;13.70;;
49678;SDS011;35570;48.218;16.326;2023-12-04T04:29:11;15.82;;;11.65;;
49678;SDS011;35570;48.218;16.326;2023-12-04T04:31:36;17.80;;;11.52;;
49678;SDS011;35570;48.218;16.326;2023-12-04T04:34:02;17.27;;;10.80;;
49678;SDS011;35570;48.218;16.326;2023-12-04T04:36:27;15.98;;;11.70;;
49678;SDS011;35570;48.218;16.326;2023-12-04T04:38:53;14.77;;;11.20;;
49678;SDS011;35570;48.218;16.326;2023-12-04T04:41:19;18.48;;;11.57;;
49678;SDS011;35570;48.218;16.326;2023-12-04T04:43:44;16.63;;;11.10;;
49678;SDS011;35570;48.218;16.326;2023-12-04T04:46:10;18.40;;;11.75;;
49678;SDS011;35570;48.218;16.326;2023-12-04T04:48:36;18.25;;;11.68;;
49678;SDS011;35570;48.218;16.326;2023-12-04T04:51:01;18.08;;;12.23;;
49678;SDS011;35570;48.218;16.326;2023-12-04T04:53:27;16.58;;;11.93;;
49678;SDS011;35570;48.218;16.326;2023-12-04T04:55:53;18.05;;;11.77;;
49678;SDS011;35570;48.218;16.326;2023-12-04T04:58:19;14.73;;;10.70;;
49678;SDS011;35570;48.218;16.326;2023-12-04T05:00:45;15.27;;;11.32;;
49678;SDS011;35570;48.218;16.326;2023-12-04T05:03:12;18.80;;;12.32;;
49678;SDS011;35570;48.218;16.326;2023-12-04T05:05:37;17.15;;;11.75;;
49678;SDS011;35570;48.218;16.326;2023-12-04T05:08:03;17.67;;;11.85;;
49678;SDS011;35570;48.218;16.326;2023-12-04T05:10:29;16.33;;;10.98;;
49678;SDS011;35570;48.218;16.326;2023-12-04T05:12:54;16.77;;;11.23;;
49678;SDS011;35570;48.218;16.326;2023-12-04T05:15:20;17.52;;;11.55;;
49678;SDS011;35570;48.218;16.326;2023-12-04T05:17:46;17.27;;;11.45;;
49678;SDS011;35570;48.218;16.326;2023-12-04T05:20:12;15.85;;;11.30;;
49678;SDS011;35570;48.218;16.326;2023-12-04T05:22:38;16.73;;;11.38;;
49678;SDS011;35570;48.218;16.326;2023-12-04T05:25:03;17.98;;;11.70;;
49678;SDS011;35570;48.218;16.326;2023-12-04T05:27:29;16.77;;;12.13;;
49678;SDS011;35570;48.218;16.326;2023-12-04T05:29:55;16.45;;;11.13;;
49678;SDS011;35570;48.218;16.326;2023-12-04T05:32:21;14.80;;;10.35;;
49678;SDS011;35570;48.218;16.326;2023-12-04T05:34:46;16.02;;;11.02;;
49678;SDS011;35570;48.218;16.326;2023-12-04T05:37:12;16.77;;;11.07;;
49678;SDS011;35570;48.218;16.326;2023-12-04T05:39:37;17.35;;;11.63;;
49678;SDS011;35570;48.218;16.326;2023-12-04T05:42:03;17.05;;;11.65;;
49678;SDS011;35570;48.218;16.326;2023-12-04T05:44:30;17.83;;;11.88;;
49678;SDS011;35570;48.218;16.326;2023-12-04T05:46:56;16.17;;;11.02;;
49678;SDS011;35570;48.218;16.326;2023-12-04T05:49:21;16.48;;;10.82;;
49678;SDS011;35570;48.218;16.326;2023-12-04T05:51:47;18.40;;;11.18;;
49678;SDS011;35570;48.218;16.326;2023-12-04T05:54:13;17.20;;;11.55;;
49678;SDS011;35570;48.218;16.326;2023-12-04T05:56:38;18.92;;;11.35;;
49678;SDS011;35570;48.218;16.326;2023-12-04T05:59:04;15.68;;;10.60;;
49678;SDS011;35570;48.218;16.326;2023-12-04T06:01:29;17.00;;;11.10;;
49678;SDS011;35570;48.218;16.326;2023-12-04T06:03:55;17.00;;;11.05;;
49678;SDS011;35570;48.218;16.326;2023-12-04T06:06:20;17.13;;;11.75;;
49678;SDS011;35570;48.218;16.326;2023-12-04T06:08:46;17.50;;;11.95;;
49678;SDS011;35570;48.218;16.326;2023-12-04T06:11:12;17.02;;;11.57;;
49678;SDS011;35570;48.218;16.326;2023-12-04T06:13:38;18.05;;;12.27;;
49678;SDS011;35570;48.218;16.326;2023-12-04T06:16:04;17.73;;;11.70;;
49678;SDS011;35570;48.218;16.326;2023-12-04T06:18:30;17.58;;;12.02;;
49678;SDS011;35570;48.218;16.326;2023-12-04T06:20:55;20.05;;;12.23;;
49678;SDS011;35570;48.218;16.326;2023-12-04T06:23:21;19.70;;;12.70;;
49678;SDS011;35570;48.218;16.326;2023-12-04T06:25:47;17.23;;;11.63;;
49678;SDS011;35570;48.218;16.326;2023-12-04T06:28:13;21.65;;;12.38;;
49678;SDS011;35570;48.218;16.326;2023-12-04T06:30:39;21.10;;;13.32;;
49678;SDS011;35570;48.218;16.326;2023-12-04T06:33:05;21.17;;;13.50;;
49678;SDS011;35570;48.218;16.326;2023-12-04T06:35:32;18.27;;;13.13;;
49678;SDS011;35570;48.218;16.326;2023-12-04T06:37:58;21.02;;;15.23;;
49678;SDS011;35570;48.218;16.326;2023-12-04T06:40:30;20.42;;;14.57;;
49678;SDS011;35570;48.218;16.326;2023-12-04T06:42:57;20.85;;;14.65;;
49678;SDS011;35570;48.218;16.326;2023-12-04T06:45:23;22.23;;;14.60;;
49678;SDS011;35570;48.218;16.326;2023-12-04T06:47:49;21.52;;;14.65;;
49678;SDS011;35570;48.218;16.326;2023-12-04T06:50:15;22.80;;;14.98;;
49678;SDS011;35570;48.218;16.326;2023-12-04T06:52:41;25.63;;;15.77;;
49678;SDS011;35570;48.218;16.326;2023-12-04T06:55:07;22.08;;;15.43;;
49678;SDS011;35570;48.218;16.326;2023-12-04T06:57:33;25.80;;;16.45;;
49678;SDS011;35570;48.218;16.326;2023-12-04T06:59:59;27.77;;;18.40;;
49678;SDS011;35570;48.218;16.326;2023-12-04T07:02:25;27.52;;;16.67;;
49678;SDS011;35570;48.218;16.326;2023-12-04T07:04:50;28.70;;;17.80;;
49678;SDS011;35570;48.218;16.326;2023-12-04T07:07:16;24.13;;;16.52;;
49678;SDS011;35570;48.218;16.326;2023-12-04T07:09:42;26.05;;;17.65;;
49678;SDS011;35570;48.218;16.326;2023-12-04T07:12:07;26.20;;;17.08;;
49678;SDS011;35570;48.218;16.326;2023-12-04T07:14:33;26.40;;;17.85;;
49678;SDS011;35570;48.218;16.326;2023-12-04T07:16:59;25.13;;;17.27;;
49678;SDS011;35570;48.218;16.326;2023-12-04T07:19:25;24.92;;;17.63;;
49678;SDS011;35570;48.218;16.326;2023-12-04T07:21:51;30.35;;;19.00;;
49678;SDS011;35570;48.218;16.326;2023-12-04T07:24:17;21.63;;;13.90;;
49678;SDS011;35570;48.218;16.326;2023-12-04T07:26:43;21.33;;;14.32;;
49678;SDS011;35570;48.218;16.326;2023-12-04T07:29:09;23.15;;;15.07;;
49678;SDS011;35570;48.218;16.326;2023-12-04T07:31:35;19.25;;;14.25;;
49678;SDS011;35570;48.218;16.326;2023-12-04T07:34:01;16.58;;;12.75;;
49678;SDS011;35570;48.218;16.326;2023-12-04T07:36:27;27.10;;;13.25;;
49678;SDS011;35570;48.218;16.326;2023-12-04T07:38:56;26.60;;;15.05;;
49678;SDS011;35570;48.218;16.326;2023-12-04T07:41:21;20.55;;;13.98;;
49678;SDS011;35570;48.218;16.326;2023-12-04T07:43:47;20.33;;;15.80;;
49678;SDS011;35570;48.218;16.326;2023-12-04T07:46:12;22.55;;;16.77;;
49678;SDS011;35570;48.218;16.326;2023-12-04T07:48:39;22.30;;;15.98;;
49678;SDS011;35570;48.218;16.326;2023-12-04T07:51:05;20.50;;;14.27;;
49678;SDS011;35570;48.218;16.326;2023-12-04T07:53:32;20.40;;;13.98;;
49678;SDS011;35570;48.218;16.326;2023-12-04T07:56:00;17.42;;;13.18;;
49678;SDS011;35570;48.218;16.326;2023-12-04T07:58:28;21.65;;;12.75;;
49678;SDS011;35570;48.218;16.326;2023-12-04T08:00:53;20.63;;;14.13;;
49678;SDS011;35570;48.218;16.326;2023-12-04T08:03:19;19.50;;;12.60;;
49678;SDS011;35570;48.218;16.326;2023-12-04T08:05:45;23.00;;;14.05;;
49678;SDS011;35570;48.218;16.326;2023-12-04T08:08:10;20.15;;;14.30;;
49678;SDS011;35570;48.218;16.326;2023-12-04T08:10:36;18.80;;;12.85;;
49678;SDS011;35570;48.218;16.326;2023-12-04T08:13:02;19.83;;;13.43;;
49678;SDS011;35570;48.218;16.326;2023-12-04T08:15:27;21.30;;;12.93;;
49678;SDS011;35570;48.218;16.326;2023-12-04T08:17:53;18.35;;;13.27;;
49678;SDS011;35570;48.218;16.326;2023-12-04T08:20:20;17.67;;;12.80;;
49678;SDS011;35570;48.218;16.326;2023-12-04T08:22:47;19.52;;;13.43;;
49678;SDS011;35570;48.218;16.326;2023-12-04T08:25:13;16.77;;;12.55;;
49678;SDS011;35570;48.218;16.326;2023-12-04T08:27:38;20.00;;;12.50;;
49678;SDS011;35570;48.218;16.326;2023-12-04T08:30:04;20.00;;;13.35;;
49678;SDS011;35570;48.218;16.326;2023-12-04T08:32:31;19.85;;;14.18;;
49678;SDS011;35570;48.218;16.326;2023-12-04T08:34:56;19.70;;;12.95;;
49678;SDS011;35570;48.218;16.326;2023-12-04T08:37:22;20.83;;;13.88;;
49678;SDS011;35570;48.218;16.326;2023-12-04T08:39:48;21.02;;;12.95;;
49678;SDS011;35570;48.218;16.326;2023-12-04T08:42:13;18.80;;;13.10;;
49678;SDS011;35570;48.218;16.326;2023-12-04T08:44:39;21.45;;;13.85;;
49678;SDS011;35570;48.218;16.326;2023-12-04T08:47:05;19.02;;;13.63;;
49678;SDS011;35570;48.218;16.326;2023-12-04T08:49:31;20.95;;;13.52;;
49678;SDS011;35570;48.218;16.326;2023-12-04T08:51:57;21.90;;;13.65;;
49678;SDS011;35570;48.218;16.326;2023-12-04T08:59:34;18.90;;;13.75;;
49678;SDS011;35570;48.218;16.326;2023-12-04T09:02:00;17.55;;;12.90;;
49678;SDS011;35570;48.218;16.326;2023-12-04T09:07:04;17.13;;;12.77;;
49678;SDS011;35570;48.218;16.326;2023-12-04T09:09:29;15.57;;;12.15;;
49678;SDS011;35570;48.218;16.326;2023-12-04T09:11:57;22.08;;;13.82;;
49678;SDS011;35570;48.218;16.326;2023-12-04T09:14:23;18.65;;;13.45;;
49678;SDS011;35570;48.218;16.326;2023-12-04T09:16:49;19.33;;;14.60;;
49678;SDS011;35570;48.218;16.326;2023-12-04T09:19:14;19.83;;;13.73;;
49678;SDS011;35570;48.218;16.326;2023-12-04T09:21:40;18.90;;;14.00;;
49678;SDS011;35570;48.218;16.326;2023-12-04T09:24:06;20.45;;;14.48;;
49678;SDS011;35570;48.218;16.326;2023-12-04T09:26:34;20.33;;;14.55;;
49678;SDS011;35570;48.218;16.326;2023-12-04T09:29:00;19.67;;;14.23;;
49678;SDS011;35570;48.218;16.326;2023-12-04T09:31:26;16.85;;;13.23;;
49678;SDS011;35570;48.218;16.326;2023-12-04T09:33:52;17.70;;;13.60;;
49678;SDS011;35570;48.218;16.326;2023-12-04T09:36:17;20.98;;;14.40;;
49678;SDS011;35570;48.218;16.326;2023-12-04T09:41:19;21.73;;;13.93;;
49678;SDS011;35570;48.218;16.326;2023-12-04T09:43:46;18.95;;;13.02;;
49678;SDS011;35570;48.218;16.326;2023-12-04T09:46:13;18.27;;;13.73;;
49678;SDS011;35570;48.218;16.326;2023-12-04T09:48:41;19.92;;;14.13;;
49678;SDS011;35570;48.218;16.326;2023-12-04T09:51:08;19.02;;;14.05;;
49678;SDS011;35570;48.218;16.326;2023-12-04T09:53:35;18.73;;;13.18;;
49678;SDS011;35570;48.218;16.326;2023-12-04T09:56:02;16.65;;;12.20;;
49678;SDS011;35570;48.218;16.326;2023-12-04T09:58:29;15.75;;;11.55;;
49678;SDS011;35570;48.218;16.326;2023-12-04T10:00:58;15.95;;;12.00;;
49678;SDS011;35570;48.218;16.326;2023-12-04T10:03:26;18.92;;;11.95;;
49678;SDS011;35570;48.218;16.326;2023-12-04T10:05:54;18.42;;;12.57;;
49678;SDS011;35570;48.218;16.326;2023-12-04T10:08:20;17.02;;;12.73;;
49678;SDS011;35570;48.218;16.326;2023-12-04T10:10:46;14.70;;;11.50;;
49678;SDS011;35570;48.218;16.326;2023-12-04T10:13:12;17.55;;;11.75;;
49678;SDS011;35570;48.218;16.326;2023-12-04T10:15:48;17.45;;;11.98;;
49678;SDS011;35570;48.218;16.326;2023-12-04T10:18:30;14.38;;;10.95;;
49678;SDS011;35570;48.218;16.326;2023-12-04T10:20:57;14.23;;;11.73;;
49678;SDS011;35570;48.218;16.326;2023-12-04T10:23:40;14.68;;;10.43;;
49678;SDS011;35570;48.218;16.326;2023-12-04T10:26:07;13.77;;;10.20;;
49678;SDS011;35570;48.218;16.326;2023-12-04T10:28:33;13.68;;;10.13;;
49678;SDS011;35570;48.218;16.326;2023-12-04T10:31:02;13.77;;;10.45;;
49678;SDS011;35570;48.218;16.326;2023-12-04T10:33:31;13.13;;;10.93;;
49678;SDS011;35570;48.218;16.326;2023-12-04T10:35:57;11.82;;;9.48;;
49678;SDS011;35570;48.218;16.326;2023-12-04T10:38:23;15.95;;;9.65;;
49678;SDS011;35570;48.218;16.326;2023-12-04T10:40:51;13.95;;;10.02;;
49678;SDS011;35570;48.218;16.326;2023-12-04T10:43:20;15.35;;;10.75;;
49678;SDS011;35570;48.218;16.326;2023-12-04T10:45:47;16.73;;;11.25;;
49678;SDS011;35570;48.218;16.326;2023-12-04T10:48:14;14.30;;;10.43;;
49678;SDS011;35570;48.218;16.326;2023-12-04T10:50:42;13.13;;;9.73;;
49678;SDS011;35570;48.218;16.326;2023-12-04T10:53:10;14.57;;;11.00;;
49678;SDS011;35570;48.218;16.326;2023-12-04T10:55:38;14.43;;;10.32;;
49678;SDS011;35570;48.218;16.326;2023-12-04T10:58:08;14.07;;;10.52;;
49678;SDS011;35570;48.218;16.326;2023-12-04T11:00:36;15.18;;;10.57;;
49678;SDS011;35570;48.218;16.326;2023-12-04T11:03:08;14.30;;;9.80;;
49678;SDS011;35570;48.218;16.326;2023-12-04T11:05:38;13.30;;;10.02;;
49678;SDS011;35570;48.218;16.326;2023-12-04T11:08:11;12.93;;;10.05;;
49678;SDS011;35570;48.218;16.326;2023-12-04T11:10:45;18.63;;;12.88;;
49678;SDS011;35570;48.218;16.326;2023-12-04T11:13:34;15.00;;;11.70;;
49678;SDS011;35570;48.218;16.326;2023-12-04T11:16:07;12.77;;;9.73;;
49678;SDS011;35570;48.218;16.326;2023-12-04T11:18:40;11.20;;;9.38;;
49678;SDS011;35570;48.218;16.326;2023-12-04T11:21:09;12.55;;;9.93;;
49678;SDS011;35570;48.218;16.326;2023-12-04T11:23:36;14.30;;;10.43;;
49678;SDS011;35570;48.218;16.326;2023-12-04T11:26:03;16.38;;;11.20;;
49678;SDS011;35570;48.218;16.326;2023-12-04T11:28:30;12.80;;;9.35;;
49678;SDS011;35570;48.218;16.326;2023-12-04T11:30:57;15.52;;;10.60;;
49678;SDS011;35570;48.218;16.326;2023-12-04T11:33:23;13.68;;;10.40;;
49678;SDS011;35570;48.218;16.326;2023-12-04T11:35:50;12.10;;;10.38;;
49678;SDS011;35570;48.218;16.326;2023-12-04T11:38:18;13.90;;;10.02;;
49678;SDS011;35570;48.218;16.326;2023-12-04T11:40:45;16.42;;;9.50;;
49678;SDS011;35570;48.218;16.326;2023-12-04T11:43:21;12.32;;;9.60;;
49678;SDS011;35570;48.218;16.326;2023-12-04T11:45:49;13.85;;;9.07;;
49678;SDS011;35570;48.218;16.326;2023-12-04T11:48:15;11.77;;;9.50;;
49678;SDS011;35570;48.218;16.326;2023-12-04T11:50:42;11.02;;;7.95;;
49678;SDS011;35570;48.218;16.326;2023-12-04T11:53:10;15.45;;;10.20;;
49678;SDS011;35570;48.218;16.326;2023-12-04T11:55:37;14.93;;;10.35;;
49678;SDS011;35570;48.218;16.326;2023-12-04T11:58:08;19.80;;;12.45;;
49678;SDS011;35570;48.218;16.326;2023-12-04T12:00:35;14.75;;;10.57;;
49678;SDS011;35570;48.218;16.326;2023-12-04T12:05:45;10.05;;;7.05;;
49678;SDS011;35570;48.218;16.326;2023-12-04T12:08:14;10.05;;;6.60;;
49678;SDS011;35570;48.218;16.326;2023-12-04T12:10:40;9.90;;;6.20;;
49678;SDS011;35570;48.218;16.326;2023-12-04T12:13:06;10.05;;;6.40;;
49678;SDS011;35570;48.218;16.326;2023-12-04T12:15:34;12.43;;;5.63;;
49678;SDS011;35570;48.218;16.326;2023-12-04T12:18:00;9.35;;;6.18;;
49678;SDS011;35570;48.218;16.326;2023-12-04T12:20:26;11.63;;;5.78;;
49678;SDS011;35570;48.218;16.326;2023-12-04T12:22:51;11.30;;;6.38;;
49678;SDS011;35570;48.218;16.326;2023-12-04T12:25:17;10.63;;;7.15;;
49678;SDS011;35570;48.218;16.326;2023-12-04T12:27:44;10.35;;;7.75;;
49678;SDS011;35570;48.218;16.326;2023-12-04T12:30:10;14.02;;;7.25;;
49678;SDS011;35570;48.218;16.326;2023-12-04T12:32:36;12.30;;;8.32;;
49678;SDS011;35570;48.218;16.326;2023-12-04T12:35:02;11.90;;;7.88;;
49678;SDS011;35570;48.218;16.326;2023-12-04T12:37:32;11.73;;;8.88;;
49678;SDS011;35570;48.218;16.326;2023-12-04T12:40:00;11.63;;;8.95;;
49678;SDS011;35570;48.218;16.326;2023-12-04T12:42:26;16.60;;;10.27;;
49678;SDS011;35570;48.218;16.326;2023-12-04T12:44:53;13.48;;;9.93;;
49678;SDS011;35570;48.218;16.326;2023-12-04T12:47:20;13.65;;;10.32;;
49678;SDS011;35570;48.218;16.326;2023-12-04T12:49:46;14.70;;;10.00;;
49678;SDS011;35570;48.218;16.326;2023-12-04T12:52:12;15.32;;;11.05;;
49678;SDS011;35570;48.218;16.326;2023-12-04T12:54:43;14.60;;;10.38;;
49678;SDS011;35570;48.218;16.326;2023-12-04T12:57:09;14.10;;;10.55;;
49678;SDS011;35570;48.218;16.326;2023-12-04T12:59:36;14.65;;;10.40;;
49678;SDS011;35570;48.218;16.326;2023-12-04T13:02:04;19.50;;;11.15;;
49678;SDS011;35570;48.218;16.326;2023-12-04T13:04:38;16.42;;;11.30;;
49678;SDS011;35570;48.218;16.326;2023-12-04T13:07:06;15.00;;;10.32;;
49678;SDS011;35570;48.218;16.326;2023-12-04T13:09:35;16.25;;;10.98;;
49678;SDS011;35570;48.218;16.326;2023-12-04T13:12:04;14.13;;;11.00;;
49678;SDS011;35570;48.218;16.326;2023-12-04T13:14:31;16.30;;;11.35;;
49678;SDS011;35570;48.218;16.326;2023-12-04T13:16:59;14.73;;;10.50;;
49678;SDS011;35570;48.218;16.326;2023-12-04T13:19:26;16.20;;;11.82;;
49678;SDS011;35570;48.218;16.326;2023-12-04T13:21:52;16.80;;;11.60;;
49678;SDS011;35570;48.218;16.326;2023-12-04T13:24:17;16.45;;;11.38;;
49678;SDS011;35570;48.218;16.326;2023-12-04T13:26:43;14.32;;;10.90;;
49678;SDS011;35570;48.218;16.326;2023-12-04T13:29:10;16.45;;;11.88;;
49678;SDS011;35570;48.218;16.326;2023-12-04T13:31:36;15.60;;;10.27;;
49678;SDS011;35570;48.218;16.326;2023-12-04T13:34:02;13.75;;;10.32;;
49678;SDS011;35570;48.218;16.326;2023-12-04T13:36:31;16.35;;;10.07;;
49678;SDS011;35570;48.218;16.326;2023-12-04T13:39:01;12.90;;;9.23;;
49678;SDS011;35570;48.218;16.326;2023-12-04T13:41:27;11.52;;;8.77;;
49678;SDS011;35570;48.218;16.326;2023-12-04T13:44:11;17.85;;;10.13;;
49678;SDS011;35570;48.218;16.326;2023-12-04T13:46:39;13.80;;;9.07;;
49678;SDS011;35570;48.218;16.326;2023-12-04T13:49:05;13.43;;;9.02;;
49678;SDS011;35570;48.218;16.326;2023-12-04T13:51:30;18.00;;;10.90;;
49678;SDS011;35570;48.218;16.326;2023-12-04T13:53:56;12.63;;;9.20;;
49678;SDS011;35570;48.218;16.326;2023-12-04T13:56:27;14.02;;;9.57;;
49678;SDS011;35570;48.218;16.326;2023-12-04T13:59:17;14.93;;;9.82;;
49678;SDS011;35570;48.218;16.326;2023-12-04T14:01:45;16.45;;;10.20;;
49678;SDS011;35570;48.218;16.326;2023-12-04T14:04:11;13.80;;;9.20;;
49678;SDS011;35570;48.218;16.326;2023-12-04T14:06:37;14.65;;;10.20;;
49678;SDS011;35570;48.218;16.326;2023-12-04T14:09:02;12.88;;;10.05;;
49678;SDS011;35570;48.218;16.326;2023-12-04T14:11:35;13.80;;;9.88;;
49678;SDS011;35570;48.218;16.326;2023-12-04T14:14:04;14.55;;;10.02;;
49678;SDS011;35570;48.218;16.326;2023-12-04T14:16:30;14.95;;;10.13;;
49678;SDS011;35570;48.218;16.326;2023-12-04T14:18:56;12.75;;;9.45;;
49678;SDS011;35570;48.218;16.326;2023-12-04T14:21:21;12.38;;;9.20;;
49678;SDS011;35570;48.218;16.326;2023-12-04T14:23:47;12.18;;;9.35;;
49678;SDS011;35570;48.218;16.326;2023-12-04T14:26:14;14.95;;;9.10;;
49678;SDS011;35570;48.218;16.326;2023-12-04T14:28:39;14.02;;;9.57;;
49678;SDS011;35570;48.218;16.326;2023-12-04T14:31:05;14.13;;;9.10;;
49678;SDS011;35570;48.218;16.326;2023-12-04T14:33:32;12.95;;;9.55;;
49678;SDS011;35570;48.218;16.326;2023-12-04T14:35:58;17.25;;;9.60;;
49678;SDS011;35570;48.218;16.326;2023-12-04T14:38:23;13.60;;;9.45;;
49678;SDS011;35570;48.218;16.326;2023-12-04T14:40:51;14.00;;;9.27;;
49678;SDS011;35570;48.218;16.326;2023-12-04T14:43:17;13.57;;;9.15;;